sensor_id;sensor_type;location;lat;lon;timestamp;P1;durP1;ratioP1;P2;durP2;ratioP2
53843;SDS011;39744;53.314;5.710;2023-04-03T00:00:29;4.55;;;1.67;;
53843;SDS011;39744;53.314;5.710;2023-04-03T00:02:56;5.32;;;1.67;;
53843;SDS011;39744;53.314;5.710;2023-04-03T00:05:22;4.30;;;1.45;;
53843;SDS011;39744;53.314;5.710;2023-04-03T00:07:48;4.88;;;1.50;;
53843;SDS011;39744;53.314;5.710;2023-04-03T00:10:15;6.32;;;1.48;;
53843;SDS011;39744;53.314;5.710;2023-04-03T00:12:41;4.93;;;1.75;;
53843;SDS011;39744;53.314;5.710;2023-04-03T00:15:07;3.22;;;1.25;;
53843;SDS011;39744;53.314;5.710;2023-04-03T00:17:33;3.88;;;1.50;;
53843;SDS011;39744;53.314;5.710;2023-04-03T00:20:00;5.32;;;1.50;;
53843;SDS011;39744;53.314;5.710;2023-04-03T00:22:26;4.85;;;1.50;;
53843;SDS011;39744;53.314;5.710;2023-04-03T00:24:53;3.97;;;1.23;;
53843;SDS011;39744;53.314;5.710;2023-04-03T00:27:19;4.40;;;1.52;;
53843;SDS011;39744;53.314;5.710;2023-04-03T00:29:45;4.18;;;1.42;;
53843;SDS011;39744;53.314;5.710;2023-04-03T00:32:11;3.00;;;1.38;;
53843;SDS011;39744;53.314;5.710;2023-04-03T00:34:38;5.28;;;1.40;;
53843;SDS011;39744;53.314;5.710;2023-04-03T00:37:04;3.75;;;1.70;;
53843;SDS011;39744;53.314;5.710;2023-04-03T00:39:30;3.38;;;1.40;;
53843;SDS011;39744;53.314;5.710;2023-04-03T00:41:56;5.97;;;1.58;;
53843;SDS011;39744;53.314;5.710;2023-04-03T00:46:54;5.57;;;1.43;;
53843;SDS011;39744;53.314;5.710;2023-04-03T00:49:20;5.53;;;1.55;;
53843;SDS011;39744;53.314;5.710;2023-04-03T00:51:46;3.53;;;1.42;;
53843;SDS011;39744;53.314;5.710;2023-04-03T00:54:12;4.75;;;1.27;;
53843;SDS011;39744;53.314;5.710;2023-04-03T00:56:38;5.45;;;1.45;;
53843;SDS011;39744;53.314;5.710;2023-04-03T00:59:06;4.10;;;1.30;;
53843;SDS011;39744;53.314;5.710;2023-04-03T01:01:34;4.28;;;1.45;;
53843;SDS011;39744;53.314;5.710;2023-04-03T01:04:00;4.05;;;1.30;;
53843;SDS011;39744;53.314;5.710;2023-04-03T01:06:28;4.13;;;1.40;;
53843;SDS011;39744;53.314;5.710;2023-04-03T01:08:57;5.78;;;1.40;;
53843;SDS011;39744;53.314;5.710;2023-04-03T01:11:23;6.18;;;1.52;;
53843;SDS011;39744;53.314;5.710;2023-04-03T01:13:49;3.88;;;1.40;;
53843;SDS011;39744;53.314;5.710;2023-04-03T01:16:15;3.65;;;1.20;;
53843;SDS011;39744;53.314;5.710;2023-04-03T01:18:42;4.43;;;1.38;;
53843;SDS011;39744;53.314;5.710;2023-04-03T01:23:43;3.38;;;1.20;;
53843;SDS011;39744;53.314;5.710;2023-04-03T01:26:13;5.82;;;1.50;;
53843;SDS011;39744;53.314;5.710;2023-04-03T01:28:40;6.20;;;1.48;;
53843;SDS011;39744;53.314;5.710;2023-04-03T01:31:25;4.65;;;1.42;;
53843;SDS011;39744;53.314;5.710;2023-04-03T01:33:52;4.35;;;1.30;;
53843;SDS011;39744;53.314;5.710;2023-04-03T01:36:20;4.50;;;1.33;;
53843;SDS011;39744;53.314;5.710;2023-04-03T01:38:46;4.80;;;1.35;;
53843;SDS011;39744;53.314;5.710;2023-04-03T01:41:13;4.78;;;1.45;;
53843;SDS011;39744;53.314;5.710;2023-04-03T01:43:40;3.38;;;1.42;;
53843;SDS011;39744;53.314;5.710;2023-04-03T01:46:06;3.78;;;1.27;;
53843;SDS011;39744;53.314;5.710;2023-04-03T01:48:32;4.38;;;1.50;;
53843;SDS011;39744;53.314;5.710;2023-04-03T01:50:59;4.85;;;1.33;;
53843;SDS011;39744;53.314;5.710;2023-04-03T01:53:25;6.20;;;1.42;;
53843;SDS011;39744;53.314;5.710;2023-04-03T01:55:51;3.65;;;1.20;;
53843;SDS011;39744;53.314;5.710;2023-04-03T01:58:17;4.97;;;1.23;;
53843;SDS011;39744;53.314;5.710;2023-04-03T02:00:42;3.92;;;1.30;;
53843;SDS011;39744;53.314;5.710;2023-04-03T02:03:08;4.88;;;1.48;;
53843;SDS011;39744;53.314;5.710;2023-04-03T02:05:34;3.67;;;1.17;;
53843;SDS011;39744;53.314;5.710;2023-04-03T02:07:59;5.25;;;1.50;;
53843;SDS011;39744;53.314;5.710;2023-04-03T02:10:25;6.00;;;1.70;;
53843;SDS011;39744;53.314;5.710;2023-04-03T02:12:51;3.85;;;1.25;;
53843;SDS011;39744;53.314;5.710;2023-04-03T02:15:17;4.90;;;1.50;;
53843;SDS011;39744;53.314;5.710;2023-04-03T02:17:43;6.05;;;1.40;;
53843;SDS011;39744;53.314;5.710;2023-04-03T02:20:09;4.43;;;1.23;;
53843;SDS011;39744;53.314;5.710;2023-04-03T02:22:35;5.28;;;1.60;;
53843;SDS011;39744;53.314;5.710;2023-04-03T02:25:01;4.60;;;1.50;;
53843;SDS011;39744;53.314;5.710;2023-04-03T02:27:27;6.13;;;1.60;;
53843;SDS011;39744;53.314;5.710;2023-04-03T02:29:52;3.15;;;1.20;;
53843;SDS011;39744;53.314;5.710;2023-04-03T02:32:18;3.30;;;1.30;;
53843;SDS011;39744;53.314;5.710;2023-04-03T02:34:43;5.22;;;1.40;;
53843;SDS011;39744;53.314;5.710;2023-04-03T02:37:09;12.10;;;1.88;;
53843;SDS011;39744;53.314;5.710;2023-04-03T02:39:36;3.40;;;1.23;;
53843;SDS011;39744;53.314;5.710;2023-04-03T02:42:02;7.10;;;1.58;;
53843;SDS011;39744;53.314;5.710;2023-04-03T02:44:28;8.02;;;1.92;;
53843;SDS011;39744;53.314;5.710;2023-04-03T02:46:54;6.20;;;1.60;;
53843;SDS011;39744;53.314;5.710;2023-04-03T02:49:20;6.03;;;1.50;;
53843;SDS011;39744;53.314;5.710;2023-04-03T02:51:45;7.80;;;1.40;;
53843;SDS011;39744;53.314;5.710;2023-04-03T02:54:12;4.15;;;1.50;;
53843;SDS011;39744;53.314;5.710;2023-04-03T02:56:38;5.97;;;1.60;;
53843;SDS011;39744;53.314;5.710;2023-04-03T02:59:04;4.68;;;1.55;;
53843;SDS011;39744;53.314;5.710;2023-04-03T03:01:30;7.03;;;1.70;;
53843;SDS011;39744;53.314;5.710;2023-04-03T03:03:56;4.55;;;1.77;;
53843;SDS011;39744;53.314;5.710;2023-04-03T03:06:22;6.93;;;1.90;;
53843;SDS011;39744;53.314;5.710;2023-04-03T03:08:48;7.03;;;1.88;;
53843;SDS011;39744;53.314;5.710;2023-04-03T03:11:14;7.00;;;1.83;;
53843;SDS011;39744;53.314;5.710;2023-04-03T03:13:39;3.55;;;1.30;;
53843;SDS011;39744;53.314;5.710;2023-04-03T03:16:05;5.78;;;1.70;;
53843;SDS011;39744;53.314;5.710;2023-04-03T03:18:32;7.00;;;1.60;;
53843;SDS011;39744;53.314;5.710;2023-04-03T03:20:59;4.57;;;1.58;;
53843;SDS011;39744;53.314;5.710;2023-04-03T03:23:26;5.57;;;1.65;;
53843;SDS011;39744;53.314;5.710;2023-04-03T03:25:58;4.25;;;1.63;;
53843;SDS011;39744;53.314;5.710;2023-04-03T03:28:26;6.72;;;1.70;;
53843;SDS011;39744;53.314;5.710;2023-04-03T03:30:52;5.43;;;1.75;;
53843;SDS011;39744;53.314;5.710;2023-04-03T03:33:18;8.18;;;1.88;;
53843;SDS011;39744;53.314;5.710;2023-04-03T03:35:43;7.47;;;1.42;;
53843;SDS011;39744;53.314;5.710;2023-04-03T03:38:10;4.70;;;1.83;;
53843;SDS011;39744;53.314;5.710;2023-04-03T03:40:35;4.50;;;1.85;;
53843;SDS011;39744;53.314;5.710;2023-04-03T03:43:01;5.20;;;1.75;;
53843;SDS011;39744;53.314;5.710;2023-04-03T03:45:27;4.53;;;1.70;;
53843;SDS011;39744;53.314;5.710;2023-04-03T03:47:53;6.70;;;2.05;;
53843;SDS011;39744;53.314;5.710;2023-04-03T03:50:18;4.20;;;1.60;;
53843;SDS011;39744;53.314;5.710;2023-04-03T03:52:44;6.72;;;1.73;;
53843;SDS011;39744;53.314;5.710;2023-04-03T03:55:10;7.63;;;2.17;;
53843;SDS011;39744;53.314;5.710;2023-04-03T03:57:35;6.78;;;1.85;;
53843;SDS011;39744;53.314;5.710;2023-04-03T04:00:02;3.58;;;1.35;;
53843;SDS011;39744;53.314;5.710;2023-04-03T04:02:28;9.35;;;2.03;;
53843;SDS011;39744;53.314;5.710;2023-04-03T04:04:54;5.85;;;1.77;;
53843;SDS011;39744;53.314;5.710;2023-04-03T04:07:20;5.82;;;1.67;;
53843;SDS011;39744;53.314;5.710;2023-04-03T04:09:45;4.90;;;1.90;;
53843;SDS011;39744;53.314;5.710;2023-04-03T04:12:11;5.00;;;1.98;;
53843;SDS011;39744;53.314;5.710;2023-04-03T04:14:36;5.28;;;1.83;;
53843;SDS011;39744;53.314;5.710;2023-04-03T04:17:02;5.50;;;2.00;;
53843;SDS011;39744;53.314;5.710;2023-04-03T04:19:28;6.22;;;2.08;;
53843;SDS011;39744;53.314;5.710;2023-04-03T04:21:53;5.80;;;1.67;;
53843;SDS011;39744;53.314;5.710;2023-04-03T04:24:19;5.93;;;1.80;;
53843;SDS011;39744;53.314;5.710;2023-04-03T04:26:45;6.20;;;2.08;;
53843;SDS011;39744;53.314;5.710;2023-04-03T04:29:10;5.45;;;1.88;;
53843;SDS011;39744;53.314;5.710;2023-04-03T04:31:36;8.82;;;2.25;;
53843;SDS011;39744;53.314;5.710;2023-04-03T04:34:02;6.35;;;2.20;;
53843;SDS011;39744;53.314;5.710;2023-04-03T04:36:27;6.00;;;1.88;;
53843;SDS011;39744;53.314;5.710;2023-04-03T04:38:53;7.82;;;2.00;;
53843;SDS011;39744;53.314;5.710;2023-04-03T04:41:22;7.88;;;1.77;;
53843;SDS011;39744;53.314;5.710;2023-04-03T04:43:51;5.72;;;2.13;;
53843;SDS011;39744;53.314;5.710;2023-04-03T04:46:17;7.57;;;1.90;;
53843;SDS011;39744;53.314;5.710;2023-04-03T04:48:43;5.80;;;1.90;;
53843;SDS011;39744;53.314;5.710;2023-04-03T04:51:09;6.03;;;1.85;;
53843;SDS011;39744;53.314;5.710;2023-04-03T04:53:35;7.45;;;2.00;;
53843;SDS011;39744;53.314;5.710;2023-04-03T04:56:01;10.00;;;2.65;;
53843;SDS011;39744;53.314;5.710;2023-04-03T04:58:27;4.40;;;1.73;;
53843;SDS011;39744;53.314;5.710;2023-04-03T05:01:00;8.27;;;2.05;;
53843;SDS011;39744;53.314;5.710;2023-04-03T05:03:26;7.13;;;2.38;;
53843;SDS011;39744;53.314;5.710;2023-04-03T05:05:52;7.97;;;2.85;;
53843;SDS011;39744;53.314;5.710;2023-04-03T05:08:18;6.20;;;2.20;;
53843;SDS011;39744;53.314;5.710;2023-04-03T05:10:44;8.07;;;2.42;;
53843;SDS011;39744;53.314;5.710;2023-04-03T05:13:10;7.78;;;2.75;;
53843;SDS011;39744;53.314;5.710;2023-04-03T05:15:36;7.88;;;2.40;;
53843;SDS011;39744;53.314;5.710;2023-04-03T05:18:02;7.93;;;2.28;;
53843;SDS011;39744;53.314;5.710;2023-04-03T05:20:27;7.07;;;2.20;;
53843;SDS011;39744;53.314;5.710;2023-04-03T05:22:53;8.95;;;2.40;;
53843;SDS011;39744;53.314;5.710;2023-04-03T05:25:19;9.80;;;2.50;;
53843;SDS011;39744;53.314;5.710;2023-04-03T05:27:44;9.50;;;2.58;;
53843;SDS011;39744;53.314;5.710;2023-04-03T05:30:10;8.00;;;2.30;;
53843;SDS011;39744;53.314;5.710;2023-04-03T05:32:36;6.32;;;2.25;;
53843;SDS011;39744;53.314;5.710;2023-04-03T05:35:02;6.43;;;2.50;;
53843;SDS011;39744;53.314;5.710;2023-04-03T05:37:28;5.97;;;2.38;;
53843;SDS011;39744;53.314;5.710;2023-04-03T05:39:53;7.57;;;2.60;;
53843;SDS011;39744;53.314;5.710;2023-04-03T05:42:19;9.55;;;3.25;;
53843;SDS011;39744;53.314;5.710;2023-04-03T05:44:45;6.75;;;2.30;;
53843;SDS011;39744;53.314;5.710;2023-04-03T05:47:12;9.68;;;2.20;;
53843;SDS011;39744;53.314;5.710;2023-04-03T05:49:38;5.47;;;2.03;;
53843;SDS011;39744;53.314;5.710;2023-04-03T05:52:06;6.85;;;2.60;;
53843;SDS011;39744;53.314;5.710;2023-04-03T05:54:42;8.02;;;2.42;;
53843;SDS011;39744;53.314;5.710;2023-04-03T05:57:09;6.90;;;2.28;;
53843;SDS011;39744;53.314;5.710;2023-04-03T05:59:34;6.95;;;2.42;;
53843;SDS011;39744;53.314;5.710;2023-04-03T06:02:00;8.45;;;2.38;;
53843;SDS011;39744;53.314;5.710;2023-04-03T06:04:26;7.72;;;1.80;;
53843;SDS011;39744;53.314;5.710;2023-04-03T06:06:56;8.68;;;2.47;;
53843;SDS011;39744;53.314;5.710;2023-04-03T06:09:24;5.57;;;2.30;;
53843;SDS011;39744;53.314;5.710;2023-04-03T06:11:51;7.60;;;2.05;;
53843;SDS011;39744;53.314;5.710;2023-04-03T06:14:18;7.25;;;2.38;;
53843;SDS011;39744;53.314;5.710;2023-04-03T06:16:43;6.90;;;2.60;;
53843;SDS011;39744;53.314;5.710;2023-04-03T06:19:10;7.78;;;2.40;;
53843;SDS011;39744;53.314;5.710;2023-04-03T06:21:37;8.18;;;2.22;;
53843;SDS011;39744;53.314;5.710;2023-04-03T06:24:03;7.10;;;2.28;;
53843;SDS011;39744;53.314;5.710;2023-04-03T06:26:29;10.02;;;2.42;;
53843;SDS011;39744;53.314;5.710;2023-04-03T06:28:55;7.55;;;2.50;;
53843;SDS011;39744;53.314;5.710;2023-04-03T06:31:21;7.30;;;2.25;;
53843;SDS011;39744;53.314;5.710;2023-04-03T06:33:47;8.05;;;2.50;;
53843;SDS011;39744;53.314;5.710;2023-04-03T06:36:13;7.05;;;2.30;;
53843;SDS011;39744;53.314;5.710;2023-04-03T06:38:38;9.45;;;2.60;;
53843;SDS011;39744;53.314;5.710;2023-04-03T06:41:05;12.13;;;3.13;;
53843;SDS011;39744;53.314;5.710;2023-04-03T06:43:31;6.43;;;2.50;;
53843;SDS011;39744;53.314;5.710;2023-04-03T06:45:57;4.93;;;2.20;;
53843;SDS011;39744;53.314;5.710;2023-04-03T06:48:22;8.30;;;2.60;;
53843;SDS011;39744;53.314;5.710;2023-04-03T06:50:48;9.63;;;2.60;;
53843;SDS011;39744;53.314;5.710;2023-04-03T06:53:14;8.93;;;2.90;;
53843;SDS011;39744;53.314;5.710;2023-04-03T06:55:40;9.05;;;2.60;;
53843;SDS011;39744;53.314;5.710;2023-04-03T06:58:06;7.20;;;2.35;;
53843;SDS011;39744;53.314;5.710;2023-04-03T07:00:32;9.73;;;2.65;;
53843;SDS011;39744;53.314;5.710;2023-04-03T07:02:57;7.15;;;2.72;;
53843;SDS011;39744;53.314;5.710;2023-04-03T07:05:23;8.20;;;2.42;;
53843;SDS011;39744;53.314;5.710;2023-04-03T07:07:50;10.32;;;2.13;;
53843;SDS011;39744;53.314;5.710;2023-04-03T07:10:16;8.07;;;2.15;;
53843;SDS011;39744;53.314;5.710;2023-04-03T07:12:42;12.15;;;3.28;;
53843;SDS011;39744;53.314;5.710;2023-04-03T07:15:08;9.10;;;2.42;;
53843;SDS011;39744;53.314;5.710;2023-04-03T07:17:34;8.23;;;2.63;;
53843;SDS011;39744;53.314;5.710;2023-04-03T07:20:01;6.82;;;2.30;;
53843;SDS011;39744;53.314;5.710;2023-04-03T07:22:28;6.38;;;2.20;;
53843;SDS011;39744;53.314;5.710;2023-04-03T07:24:54;7.32;;;2.03;;
53843;SDS011;39744;53.314;5.710;2023-04-03T07:27:20;7.82;;;2.28;;
53843;SDS011;39744;53.314;5.710;2023-04-03T07:29:46;9.15;;;2.60;;
53843;SDS011;39744;53.314;5.710;2023-04-03T07:32:13;7.63;;;2.45;;
53843;SDS011;39744;53.314;5.710;2023-04-03T07:34:40;12.48;;;2.42;;
53843;SDS011;39744;53.314;5.710;2023-04-03T07:37:06;7.32;;;2.60;;
53843;SDS011;39744;53.314;5.710;2023-04-03T07:39:34;8.25;;;2.65;;
53843;SDS011;39744;53.314;5.710;2023-04-03T07:42:00;5.32;;;2.25;;
53843;SDS011;39744;53.314;5.710;2023-04-03T07:44:26;11.48;;;2.30;;
53843;SDS011;39744;53.314;5.710;2023-04-03T07:46:52;5.00;;;1.90;;
53843;SDS011;39744;53.314;5.710;2023-04-03T07:49:20;6.47;;;1.95;;
53843;SDS011;39744;53.314;5.710;2023-04-03T07:51:48;5.63;;;1.92;;
53843;SDS011;39744;53.314;5.710;2023-04-03T07:54:14;5.57;;;2.10;;
53843;SDS011;39744;53.314;5.710;2023-04-03T07:56:40;7.88;;;2.17;;
53843;SDS011;39744;53.314;5.710;2023-04-03T07:59:07;7.78;;;2.15;;
53843;SDS011;39744;53.314;5.710;2023-04-03T08:01:33;7.90;;;2.00;;
53843;SDS011;39744;53.314;5.710;2023-04-03T08:04:00;7.53;;;1.70;;
53843;SDS011;39744;53.314;5.710;2023-04-03T08:06:26;9.40;;;2.05;;
53843;SDS011;39744;53.314;5.710;2023-04-03T08:08:54;3.63;;;1.67;;
53843;SDS011;39744;53.314;5.710;2023-04-03T08:11:21;5.63;;;2.10;;
53843;SDS011;39744;53.314;5.710;2023-04-03T08:13:48;6.32;;;2.10;;
53843;SDS011;39744;53.314;5.710;2023-04-03T08:16:18;9.70;;;2.05;;
53843;SDS011;39744;53.314;5.710;2023-04-03T08:18:45;7.00;;;1.92;;
53843;SDS011;39744;53.314;5.710;2023-04-03T08:21:12;6.32;;;1.80;;
53843;SDS011;39744;53.314;5.710;2023-04-03T08:23:41;5.32;;;1.67;;
53843;SDS011;39744;53.314;5.710;2023-04-03T08:26:08;7.43;;;2.00;;
53843;SDS011;39744;53.314;5.710;2023-04-03T08:28:34;8.43;;;2.05;;
53843;SDS011;39744;53.314;5.710;2023-04-03T08:31:04;6.22;;;1.80;;
53843;SDS011;39744;53.314;5.710;2023-04-03T08:33:31;8.60;;;1.90;;
53843;SDS011;39744;53.314;5.710;2023-04-03T08:35:57;6.38;;;2.20;;
53843;SDS011;39744;53.314;5.710;2023-04-03T08:38:23;5.03;;;2.17;;
53843;SDS011;39744;53.314;5.710;2023-04-03T08:41:04;7.68;;;1.83;;
53843;SDS011;39744;53.314;5.710;2023-04-03T08:46:20;5.32;;;1.88;;
53843;SDS011;39744;53.314;5.710;2023-04-03T08:48:47;6.53;;;2.08;;
53843;SDS011;39744;53.314;5.710;2023-04-03T08:51:15;6.22;;;1.98;;
53843;SDS011;39744;53.314;5.710;2023-04-03T08:53:44;5.68;;;2.17;;
53843;SDS011;39744;53.314;5.710;2023-04-03T08:56:11;6.53;;;1.60;;
53843;SDS011;39744;53.314;5.710;2023-04-03T08:58:44;3.92;;;1.60;;
53843;SDS011;39744;53.314;5.710;2023-04-03T09:01:21;4.13;;;1.77;;
53843;SDS011;39744;53.314;5.710;2023-04-03T09:03:53;5.95;;;1.80;;
53843;SDS011;39744;53.314;5.710;2023-04-03T09:06:21;4.97;;;1.73;;
53843;SDS011;39744;53.314;5.710;2023-04-03T09:09:02;3.78;;;1.58;;
53843;SDS011;39744;53.314;5.710;2023-04-03T09:14:26;5.05;;;1.67;;
53843;SDS011;39744;53.314;5.710;2023-04-03T09:17:00;3.90;;;1.60;;
53843;SDS011;39744;53.314;5.710;2023-04-03T09:19:35;4.90;;;1.30;;
53843;SDS011;39744;53.314;5.710;2023-04-03T09:24:36;5.65;;;1.50;;
53843;SDS011;39744;53.314;5.710;2023-04-03T09:27:07;4.38;;;1.45;;
53843;SDS011;39744;53.314;5.710;2023-04-03T09:29:35;4.07;;;1.48;;
53843;SDS011;39744;53.314;5.710;2023-04-03T09:32:02;3.75;;;1.20;;
53843;SDS011;39744;53.314;5.710;2023-04-03T09:34:37;4.55;;;1.10;;
53843;SDS011;39744;53.314;5.710;2023-04-03T09:37:04;3.92;;;1.00;;
53843;SDS011;39744;53.314;5.710;2023-04-03T09:39:31;2.95;;;0.90;;
53843;SDS011;39744;53.314;5.710;2023-04-03T09:42:31;3.63;;;1.23;;
53843;SDS011;39744;53.314;5.710;2023-04-03T09:44:54;4.22;;;1.13;;
53843;SDS011;39744;53.314;5.710;2023-04-03T09:47:25;4.03;;;1.58;;
53843;SDS011;39744;53.314;5.710;2023-04-03T09:50:08;2.55;;;1.00;;
53843;SDS011;39744;53.314;5.710;2023-04-03T09:52:35;3.70;;;1.38;;
53843;SDS011;39744;53.314;5.710;2023-04-03T09:55:07;2.75;;;1.10;;
53843;SDS011;39744;53.314;5.710;2023-04-03T10:00:00;3.13;;;1.23;;
53843;SDS011;39744;53.314;5.710;2023-04-03T10:02:36;3.30;;;1.13;;
53843;SDS011;39744;53.314;5.710;2023-04-03T10:05:04;3.22;;;1.20;;
53843;SDS011;39744;53.314;5.710;2023-04-03T10:07:35;2.35;;;0.98;;
53843;SDS011;39744;53.314;5.710;2023-04-03T10:10:16;3.20;;;1.20;;
53843;SDS011;39744;53.314;5.710;2023-04-03T10:12:43;4.95;;;1.33;;
53843;SDS011;39744;53.314;5.710;2023-04-03T10:15:16;2.75;;;1.13;;
53843;SDS011;39744;53.314;5.710;2023-04-03T10:28:31;2.63;;;1.17;;
53843;SDS011;39744;53.314;5.710;2023-04-03T10:39:02;3.03;;;1.10;;
53843;SDS011;39744;53.314;5.710;2023-04-03T10:41:37;3.00;;;1.30;;
53843;SDS011;39744;53.314;5.710;2023-04-03T10:44:10;3.70;;;1.08;;
53843;SDS011;39744;53.314;5.710;2023-04-03T10:46:38;3.47;;;1.10;;
53843;SDS011;39744;53.314;5.710;2023-04-03T10:54:38;2.75;;;1.00;;
53843;SDS011;39744;53.314;5.710;2023-04-03T10:57:08;3.92;;;1.48;;
53843;SDS011;39744;53.314;5.710;2023-04-03T10:59:40;3.30;;;1.20;;
53843;SDS011;39744;53.314;5.710;2023-04-03T11:02:16;3.38;;;0.95;;
53843;SDS011;39744;53.314;5.710;2023-04-03T11:07:39;2.85;;;1.10;;
53843;SDS011;39744;53.314;5.710;2023-04-03T11:10:25;3.05;;;1.17;;
53843;SDS011;39744;53.314;5.710;2023-04-03T11:15:48;2.45;;;1.00;;
53843;SDS011;39744;53.314;5.710;2023-04-03T11:18:23;3.28;;;1.00;;
53843;SDS011;39744;53.314;5.710;2023-04-03T11:21:02;3.17;;;1.00;;
53843;SDS011;39744;53.314;5.710;2023-04-03T11:23:36;2.85;;;1.05;;
53843;SDS011;39744;53.314;5.710;2023-04-03T11:26:15;2.90;;;1.00;;
53843;SDS011;39744;53.314;5.710;2023-04-03T11:28:42;4.25;;;1.25;;
53843;SDS011;39744;53.314;5.710;2023-04-03T11:37:16;4.43;;;1.30;;
53843;SDS011;39744;53.314;5.710;2023-04-03T11:42:42;3.88;;;1.10;;
53843;SDS011;39744;53.314;5.710;2023-04-03T11:50:40;4.88;;;1.20;;
53843;SDS011;39744;53.314;5.710;2023-04-03T11:58:16;4.22;;;1.40;;
53843;SDS011;39744;53.314;5.710;2023-04-03T12:01:03;3.58;;;1.23;;
53843;SDS011;39744;53.314;5.710;2023-04-03T12:03:32;2.53;;;1.05;;
53843;SDS011;39744;53.314;5.710;2023-04-03T12:08:36;2.53;;;1.08;;
53843;SDS011;39744;53.314;5.710;2023-04-03T12:16:03;3.78;;;1.00;;
53843;SDS011;39744;53.314;5.710;2023-04-03T12:18:31;4.00;;;1.25;;
53843;SDS011;39744;53.314;5.710;2023-04-03T12:21:05;2.90;;;1.10;;
53843;SDS011;39744;53.314;5.710;2023-04-03T12:23:32;3.30;;;1.27;;
53843;SDS011;39744;53.314;5.710;2023-04-03T12:26:03;3.80;;;1.10;;
53843;SDS011;39744;53.314;5.710;2023-04-03T12:28:46;4.05;;;1.17;;
53843;SDS011;39744;53.314;5.710;2023-04-03T12:31:14;3.90;;;1.10;;
53843;SDS011;39744;53.314;5.710;2023-04-03T12:36:49;2.33;;;0.80;;
53843;SDS011;39744;53.314;5.710;2023-04-03T12:47:48;2.47;;;0.95;;
53843;SDS011;39744;53.314;5.710;2023-04-03T12:53:37;4.07;;;1.10;;
53843;SDS011;39744;53.314;5.710;2023-04-03T12:58:25;4.45;;;1.38;;
53843;SDS011;39744;53.314;5.710;2023-04-03T13:01:12;4.05;;;1.02;;
53843;SDS011;39744;53.314;5.710;2023-04-03T13:03:47;2.93;;;1.00;;
53843;SDS011;39744;53.314;5.710;2023-04-03T13:06:35;3.63;;;1.10;;
53843;SDS011;39744;53.314;5.710;2023-04-03T13:09:17;3.88;;;0.93;;
53843;SDS011;39744;53.314;5.710;2023-04-03T13:11:54;3.72;;;1.30;;
53843;SDS011;39744;53.314;5.710;2023-04-03T13:14:25;3.80;;;1.20;;
53843;SDS011;39744;53.314;5.710;2023-04-03T13:19:25;3.55;;;1.30;;
53843;SDS011;39744;53.314;5.710;2023-04-03T13:21:56;2.80;;;1.30;;
53843;SDS011;39744;53.314;5.710;2023-04-03T13:24:28;4.57;;;1.30;;
53843;SDS011;39744;53.314;5.710;2023-04-03T13:26:55;3.55;;;1.23;;
53843;SDS011;39744;53.314;5.710;2023-04-03T13:29:23;4.28;;;1.65;;
53843;SDS011;39744;53.314;5.710;2023-04-03T13:31:53;5.15;;;1.40;;
53843;SDS011;39744;53.314;5.710;2023-04-03T13:34:21;5.03;;;1.52;;
53843;SDS011;39744;53.314;5.710;2023-04-03T13:36:59;3.10;;;1.25;;
53843;SDS011;39744;53.314;5.710;2023-04-03T13:39:27;3.15;;;1.40;;
53843;SDS011;39744;53.314;5.710;2023-04-03T13:41:59;2.40;;;0.90;;
53843;SDS011;39744;53.314;5.710;2023-04-03T13:44:32;4.07;;;1.58;;
53843;SDS011;39744;53.314;5.710;2023-04-03T13:49:59;3.03;;;1.50;;
53843;SDS011;39744;53.314;5.710;2023-04-03T13:55:16;3.50;;;1.48;;
53843;SDS011;39744;53.314;5.710;2023-04-03T13:57:57;4.68;;;1.70;;
53843;SDS011;39744;53.314;5.710;2023-04-03T14:00:33;5.18;;;1.48;;
53843;SDS011;39744;53.314;5.710;2023-04-03T14:03:16;4.63;;;1.25;;
53843;SDS011;39744;53.314;5.710;2023-04-03T14:05:55;4.43;;;1.30;;
53843;SDS011;39744;53.314;5.710;2023-04-03T14:08:21;4.45;;;1.20;;
53843;SDS011;39744;53.314;5.710;2023-04-03T14:10:48;5.75;;;1.58;;
53843;SDS011;39744;53.314;5.710;2023-04-03T14:13:15;4.15;;;1.27;;
53843;SDS011;39744;53.314;5.710;2023-04-03T14:15:44;4.95;;;1.30;;
53843;SDS011;39744;53.314;5.710;2023-04-03T14:18:15;3.92;;;1.30;;
53843;SDS011;39744;53.314;5.710;2023-04-03T14:20:43;3.33;;;1.20;;
53843;SDS011;39744;53.314;5.710;2023-04-03T14:23:10;5.57;;;1.30;;
53843;SDS011;39744;53.314;5.710;2023-04-03T14:25:36;5.63;;;1.30;;
53843;SDS011;39744;53.314;5.710;2023-04-03T14:28:07;4.10;;;1.30;;
53843;SDS011;39744;53.314;5.710;2023-04-03T14:30:39;6.40;;;1.90;;
53843;SDS011;39744;53.314;5.710;2023-04-03T14:33:09;4.60;;;1.63;;
53843;SDS011;39744;53.314;5.710;2023-04-03T14:35:36;4.32;;;1.60;;
53843;SDS011;39744;53.314;5.710;2023-04-03T14:38:02;10.18;;;2.22;;
53843;SDS011;39744;53.314;5.710;2023-04-03T14:40:31;3.88;;;1.60;;
53843;SDS011;39744;53.314;5.710;2023-04-03T14:42:57;4.45;;;1.70;;
53843;SDS011;39744;53.314;5.710;2023-04-03T14:45:24;3.72;;;1.40;;
53843;SDS011;39744;53.314;5.710;2023-04-03T14:47:52;5.05;;;1.50;;
53843;SDS011;39744;53.314;5.710;2023-04-03T14:50:21;4.50;;;1.58;;
53843;SDS011;39744;53.314;5.710;2023-04-03T14:52:48;4.70;;;1.85;;
53843;SDS011;39744;53.314;5.710;2023-04-03T14:55:16;4.32;;;1.60;;
53843;SDS011;39744;53.314;5.710;2023-04-03T14:57:43;3.97;;;1.52;;
53843;SDS011;39744;53.314;5.710;2023-04-03T15:00:13;4.75;;;1.50;;
53843;SDS011;39744;53.314;5.710;2023-04-03T15:02:41;4.40;;;1.30;;
53843;SDS011;39744;53.314;5.710;2023-04-03T15:05:08;8.73;;;1.90;;
53843;SDS011;39744;53.314;5.710;2023-04-03T15:07:39;4.22;;;1.60;;
53843;SDS011;39744;53.314;5.710;2023-04-03T15:12:41;4.30;;;1.60;;
53843;SDS011;39744;53.314;5.710;2023-04-03T15:15:07;4.65;;;2.03;;
53843;SDS011;39744;53.314;5.710;2023-04-03T15:17:34;3.15;;;1.40;;
53843;SDS011;39744;53.314;5.710;2023-04-03T15:20:00;5.03;;;1.98;;
53843;SDS011;39744;53.314;5.710;2023-04-03T15:22:26;3.92;;;1.30;;
53843;SDS011;39744;53.314;5.710;2023-04-03T15:24:52;6.05;;;1.55;;
53843;SDS011;39744;53.314;5.710;2023-04-03T15:27:18;4.60;;;1.67;;
53843;SDS011;39744;53.314;5.710;2023-04-03T15:29:45;4.45;;;1.50;;
53843;SDS011;39744;53.314;5.710;2023-04-03T15:32:11;4.70;;;1.38;;
53843;SDS011;39744;53.314;5.710;2023-04-03T15:34:38;5.55;;;1.70;;
53843;SDS011;39744;53.314;5.710;2023-04-03T15:37:04;5.22;;;1.45;;
53843;SDS011;39744;53.314;5.710;2023-04-03T15:39:30;3.33;;;1.27;;
53843;SDS011;39744;53.314;5.710;2023-04-03T15:41:56;11.25;;;1.30;;
53843;SDS011;39744;53.314;5.710;2023-04-03T15:44:28;3.80;;;1.33;;
53843;SDS011;39744;53.314;5.710;2023-04-03T15:46:54;2.80;;;0.95;;
53843;SDS011;39744;53.314;5.710;2023-04-03T15:49:20;3.72;;;1.20;;
53843;SDS011;39744;53.314;5.710;2023-04-03T15:51:47;2.83;;;0.95;;
53843;SDS011;39744;53.314;5.710;2023-04-03T15:54:13;2.22;;;1.00;;
53843;SDS011;39744;53.314;5.710;2023-04-03T15:56:39;3.25;;;1.00;;
53843;SDS011;39744;53.314;5.710;2023-04-03T15:59:05;2.63;;;0.88;;
53843;SDS011;39744;53.314;5.710;2023-04-03T16:01:30;3.80;;;0.95;;
53843;SDS011;39744;53.314;5.710;2023-04-03T16:03:57;3.42;;;1.10;;
53843;SDS011;39744;53.314;5.710;2023-04-03T16:06:22;3.90;;;1.17;;
53843;SDS011;39744;53.314;5.710;2023-04-03T16:08:49;5.13;;;1.73;;
53843;SDS011;39744;53.314;5.710;2023-04-03T16:11:16;3.35;;;1.20;;
53843;SDS011;39744;53.314;5.710;2023-04-03T16:13:41;2.38;;;1.00;;
53843;SDS011;39744;53.314;5.710;2023-04-03T16:16:07;4.05;;;1.05;;
53843;SDS011;39744;53.314;5.710;2023-04-03T16:18:33;3.35;;;1.08;;
53843;SDS011;39744;53.314;5.710;2023-04-03T16:21:00;2.25;;;0.80;;
53843;SDS011;39744;53.314;5.710;2023-04-03T16:23:26;3.83;;;0.98;;
53843;SDS011;39744;53.314;5.710;2023-04-03T16:25:52;6.60;;;1.38;;
53843;SDS011;39744;53.314;5.710;2023-04-03T16:28:17;2.75;;;1.20;;
53843;SDS011;39744;53.314;5.710;2023-04-03T16:30:44;5.18;;;1.20;;
53843;SDS011;39744;53.314;5.710;2023-04-03T16:33:10;3.75;;;0.82;;